sensor_id;sensor_type;location;lat;lon;timestamp;temperature;humidity
43087;DHT22;28708;52.224;6.924;2023-02-03T00:00:31;8.20;99.90
43087;DHT22;28708;52.224;6.924;2023-02-03T00:02:57;8.20;99.90
43087;DHT22;28708;52.224;6.924;2023-02-03T00:05:23;8.20;99.90
43087;DHT22;28708;52.224;6.924;2023-02-03T00:07:49;8.20;99.90
43087;DHT22;28708;52.224;6.924;2023-02-03T00:10:16;8.20;99.90
43087;DHT22;28708;52.224;6.924;2023-02-03T00:12:50;8.20;99.90
43087;DHT22;28708;52.224;6.924;2023-02-03T00:15:17;8.20;99.90
43087;DHT22;28708;52.224;6.924;2023-02-03T00:17:43;8.20;99.90
43087;DHT22;28708;52.224;6.924;2023-02-03T00:20:10;8.20;99.90
43087;DHT22;28708;52.224;6.924;2023-02-03T00:22:36;8.20;99.90
43087;DHT22;28708;52.224;6.924;2023-02-03T00:25:02;8.30;99.90
43087;DHT22;28708;52.224;6.924;2023-02-03T00:27:27;8.30;99.90
43087;DHT22;28708;52.224;6.924;2023-02-03T00:29:53;8.20;99.90
43087;DHT22;28708;52.224;6.924;2023-02-03T00:32:19;8.30;99.90
43087;DHT22;28708;52.224;6.924;2023-02-03T00:34:44;8.30;99.90
43087;DHT22;28708;52.224;6.924;2023-02-03T00:37:12;8.30;99.90
43087;DHT22;28708;52.224;6.924;2023-02-03T00:39:38;8.30;99.90
43087;DHT22;28708;52.224;6.924;2023-02-03T00:42:04;8.30;99.90
43087;DHT22;28708;52.224;6.924;2023-02-03T00:44:30;8.30;99.90
43087;DHT22;28708;52.224;6.924;2023-02-03T00:46:56;8.30;99.90
43087;DHT22;28708;52.224;6.924;2023-02-03T00:49:22;8.30;99.90
43087;DHT22;28708;52.224;6.924;2023-02-03T00:51:48;8.30;99.90
43087;DHT22;28708;52.224;6.924;2023-02-03T00:54:15;8.30;99.90
43087;DHT22;28708;52.224;6.924;2023-02-03T00:56:40;8.30;99.90
43087;DHT22;28708;52.224;6.924;2023-02-03T00:59:06;8.30;99.90
43087;DHT22;28708;52.224;6.924;2023-02-03T01:01:33;8.40;99.90
43087;DHT22;28708;52.224;6.924;2023-02-03T01:03:59;8.40;99.90
43087;DHT22;28708;52.224;6.924;2023-02-03T01:06:25;8.40;99.90
43087;DHT22;28708;52.224;6.924;2023-02-03T01:08:52;8.40;99.90
43087;DHT22;28708;52.224;6.924;2023-02-03T01:11:21;8.40;99.90
43087;DHT22;28708;52.224;6.924;2023-02-03T01:13:47;8.40;99.90
43087;DHT22;28708;52.224;6.924;2023-02-03T01:16:16;8.40;99.90
43087;DHT22;28708;52.224;6.924;2023-02-03T01:18:43;8.40;99.90
43087;DHT22;28708;52.224;6.924;2023-02-03T01:21:20;8.40;99.90
43087;DHT22;28708;52.224;6.924;2023-02-03T01:23:46;8.40;99.90
43087;DHT22;28708;52.224;6.924;2023-02-03T01:26:15;8.40;99.90
43087;DHT22;28708;52.224;6.924;2023-02-03T01:28:41;8.50;99.90
43087;DHT22;28708;52.224;6.924;2023-02-03T01:31:09;8.50;99.90
43087;DHT22;28708;52.224;6.924;2023-02-03T01:33:35;8.50;99.90
43087;DHT22;28708;52.224;6.924;2023-02-03T01:36:01;8.50;99.90
43087;DHT22;28708;52.224;6.924;2023-02-03T01:38:28;8.50;99.90
43087;DHT22;28708;52.224;6.924;2023-02-03T01:40:54;8.50;99.90
43087;DHT22;28708;52.224;6.924;2023-02-03T01:43:32;8.50;99.90
43087;DHT22;28708;52.224;6.924;2023-02-03T01:46:05;8.50;99.90
43087;DHT22;28708;52.224;6.924;2023-02-03T01:48:32;8.50;99.90
43087;DHT22;28708;52.224;6.924;2023-02-03T01:51:03;8.40;99.90
43087;DHT22;28708;52.224;6.924;2023-02-03T01:53:29;8.40;99.90
43087;DHT22;28708;52.224;6.924;2023-02-03T01:55:56;8.40;99.90
43087;DHT22;28708;52.224;6.924;2023-02-03T01:58:30;8.50;99.90
43087;DHT22;28708;52.224;6.924;2023-02-03T02:00:57;8.50;99.90
43087;DHT22;28708;52.224;6.924;2023-02-03T02:03:28;8.50;99.90
43087;DHT22;28708;52.224;6.924;2023-02-03T02:06:07;8.50;99.90
43087;DHT22;28708;52.224;6.924;2023-02-03T02:08:34;8.50;99.90
43087;DHT22;28708;52.224;6.924;2023-02-03T02:11:00;8.50;99.90
43087;DHT22;28708;52.224;6.924;2023-02-03T02:13:32;8.50;99.90
43087;DHT22;28708;52.224;6.924;2023-02-03T02:18:45;8.50;99.90
43087;DHT22;28708;52.224;6.924;2023-02-03T02:32:02;8.50;99.90
43087;DHT22;28708;52.224;6.924;2023-02-03T02:43:09;8.60;99.90
43087;DHT22;28708;52.224;6.924;2023-02-03T02:45:51;8.60;99.90
43087;DHT22;28708;52.224;6.924;2023-02-03T02:48:39;8.60;99.90
43087;DHT22;28708;52.224;6.924;2023-02-03T02:51:09;8.60;99.90
43087;DHT22;28708;52.224;6.924;2023-02-03T02:53:40;8.60;99.90
43087;DHT22;28708;52.224;6.924;2023-02-03T02:56:09;8.60;99.90
43087;DHT22;28708;52.224;6.924;2023-02-03T02:58:38;8.60;99.90
43087;DHT22;28708;52.224;6.924;2023-02-03T03:01:07;8.50;99.90
43087;DHT22;28708;52.224;6.924;2023-02-03T03:03:36;8.60;99.90
43087;DHT22;28708;52.224;6.924;2023-02-03T03:06:09;8.50;99.90
43087;DHT22;28708;52.224;6.924;2023-02-03T03:09:02;8.60;99.90
43087;DHT22;28708;52.224;6.924;2023-02-03T03:11:30;8.60;99.90
43087;DHT22;28708;52.224;6.924;2023-02-03T03:13:58;8.60;99.90
43087;DHT22;28708;52.224;6.924;2023-02-03T03:16:28;8.60;99.90
43087;DHT22;28708;52.224;6.924;2023-02-03T03:19:04;8.60;99.90
43087;DHT22;28708;52.224;6.924;2023-02-03T03:21:36;8.60;99.90
43087;DHT22;28708;52.224;6.924;2023-02-03T03:24:06;8.60;99.90
43087;DHT22;28708;52.224;6.924;2023-02-03T03:26:38;8.60;99.90
43087;DHT22;28708;52.224;6.924;2023-02-03T03:31:48;8.60;99.90
43087;DHT22;28708;52.224;6.924;2023-02-03T03:34:14;8.60;99.90
43087;DHT22;28708;52.224;6.924;2023-02-03T03:36:46;8.60;99.90
43087;DHT22;28708;52.224;6.924;2023-02-03T03:39:32;8.60;99.90
43087;DHT22;28708;52.224;6.924;2023-02-03T03:44:36;8.60;99.90
43087;DHT22;28708;52.224;6.924;2023-02-03T03:47:17;8.60;99.90
43087;DHT22;28708;52.224;6.924;2023-02-03T03:49:44;8.60;99.90
43087;DHT22;28708;52.224;6.924;2023-02-03T03:52:15;8.60;99.90
43087;DHT22;28708;52.224;6.924;2023-02-03T03:54:44;8.60;99.90
43087;DHT22;28708;52.224;6.924;2023-02-03T03:57:57;8.60;99.90
43087;DHT22;28708;52.224;6.924;2023-02-03T04:00:26;8.60;99.90
43087;DHT22;28708;52.224;6.924;2023-02-03T04:02:54;8.60;99.90
43087;DHT22;28708;52.224;6.924;2023-02-03T04:05:22;8.60;99.90
43087;DHT22;28708;52.224;6.924;2023-02-03T04:07:48;8.60;99.90
43087;DHT22;28708;52.224;6.924;2023-02-03T04:10:38;8.50;99.90
43087;DHT22;28708;52.224;6.924;2023-02-03T04:13:05;8.60;99.90
43087;DHT22;28708;52.224;6.924;2023-02-03T04:15:32;8.60;99.90
43087;DHT22;28708;52.224;6.924;2023-02-03T04:17:57;8.60;99.90
43087;DHT22;28708;52.224;6.924;2023-02-03T04:20:29;8.60;99.90
43087;DHT22;28708;52.224;6.924;2023-02-03T04:22:55;8.60;99.90
43087;DHT22;28708;52.224;6.924;2023-02-03T04:25:21;8.60;99.90
43087;DHT22;28708;52.224;6.924;2023-02-03T04:27:46;8.60;99.90
43087;DHT22;28708;52.224;6.924;2023-02-03T04:30:12;8.70;99.90
43087;DHT22;28708;52.224;6.924;2023-02-03T04:32:38;8.60;99.90
43087;DHT22;28708;52.224;6.924;2023-02-03T04:35:05;8.60;99.90
43087;DHT22;28708;52.224;6.924;2023-02-03T04:37:31;8.60;99.90
43087;DHT22;28708;52.224;6.924;2023-02-03T04:39:57;8.70;99.90
43087;DHT22;28708;52.224;6.924;2023-02-03T04:42:23;8.70;99.90
43087;DHT22;28708;52.224;6.924;2023-02-03T04:44:49;8.70;99.90
43087;DHT22;28708;52.224;6.924;2023-02-03T04:47:15;8.60;99.90
43087;DHT22;28708;52.224;6.924;2023-02-03T04:49:41;8.60;99.90
43087;DHT22;28708;52.224;6.924;2023-02-03T04:52:07;8.60;99.90
43087;DHT22;28708;52.224;6.924;2023-02-03T04:54:33;8.60;99.90
43087;DHT22;28708;52.224;6.924;2023-02-03T04:56:59;8.60;99.90
43087;DHT22;28708;52.224;6.924;2023-02-03T04:59:25;8.70;99.90
43087;DHT22;28708;52.224;6.924;2023-02-03T05:01:51;8.60;99.90
43087;DHT22;28708;52.224;6.924;2023-02-03T05:04:16;8.70;99.90
43087;DHT22;28708;52.224;6.924;2023-02-03T05:06:42;8.70;99.90
43087;DHT22;28708;52.224;6.924;2023-02-03T05:09:08;8.70;99.90
43087;DHT22;28708;52.224;6.924;2023-02-03T05:11:33;8.70;99.90
43087;DHT22;28708;52.224;6.924;2023-02-03T05:13:59;8.70;99.90
43087;DHT22;28708;52.224;6.924;2023-02-03T05:16:25;8.70;99.90
43087;DHT22;28708;52.224;6.924;2023-02-03T05:18:50;8.70;99.90
43087;DHT22;28708;52.224;6.924;2023-02-03T05:21:17;8.70;99.90
43087;DHT22;28708;52.224;6.924;2023-02-03T05:23:43;8.60;99.90
43087;DHT22;28708;52.224;6.924;2023-02-03T05:26:09;8.70;99.90
43087;DHT22;28708;52.224;6.924;2023-02-03T05:28:35;8.70;99.90
43087;DHT22;28708;52.224;6.924;2023-02-03T05:31:01;8.70;99.90
43087;DHT22;28708;52.224;6.924;2023-02-03T05:33:28;8.70;99.90
43087;DHT22;28708;52.224;6.924;2023-02-03T05:35:54;8.70;99.90
43087;DHT22;28708;52.224;6.924;2023-02-03T05:38:20;8.70;99.90
43087;DHT22;28708;52.224;6.924;2023-02-03T05:40:50;8.70;99.90
43087;DHT22;28708;52.224;6.924;2023-02-03T05:43:35;8.70;99.90
43087;DHT22;28708;52.224;6.924;2023-02-03T05:46:02;8.70;99.90
43087;DHT22;28708;52.224;6.924;2023-02-03T05:48:27;8.70;99.90
43087;DHT22;28708;52.224;6.924;2023-02-03T05:50:53;8.70;99.90
43087;DHT22;28708;52.224;6.924;2023-02-03T05:53:19;8.70;99.90
43087;DHT22;28708;52.224;6.924;2023-02-03T05:55:45;8.70;99.90
43087;DHT22;28708;52.224;6.924;2023-02-03T05:58:10;8.70;99.90
43087;DHT22;28708;52.224;6.924;2023-02-03T06:00:36;8.70;99.90
43087;DHT22;28708;52.224;6.924;2023-02-03T06:03:03;8.70;99.90
43087;DHT22;28708;52.224;6.924;2023-02-03T06:05:30;8.70;99.90
43087;DHT22;28708;52.224;6.924;2023-02-03T06:07:56;8.70;99.90
43087;DHT22;28708;52.224;6.924;2023-02-03T06:10:22;8.70;99.90
43087;DHT22;28708;52.224;6.924;2023-02-03T06:12:48;8.70;99.90
43087;DHT22;28708;52.224;6.924;2023-02-03T06:15:14;8.70;99.90
43087;DHT22;28708;52.224;6.924;2023-02-03T06:17:46;8.70;99.90
43087;DHT22;28708;52.224;6.924;2023-02-03T06:20:14;8.70;99.90
43087;DHT22;28708;52.224;6.924;2023-02-03T06:22:41;8.70;99.90
43087;DHT22;28708;52.224;6.924;2023-02-03T06:25:07;8.70;99.90
43087;DHT22;28708;52.224;6.924;2023-02-03T06:27:33;8.70;99.90
43087;DHT22;28708;52.224;6.924;2023-02-03T06:29:59;8.70;99.90
43087;DHT22;28708;52.224;6.924;2023-02-03T06:32:24;8.80;99.90
43087;DHT22;28708;52.224;6.924;2023-02-03T06:34:50;8.80;99.90
43087;DHT22;28708;52.224;6.924;2023-02-03T06:37:16;8.80;99.90
43087;DHT22;28708;52.224;6.924;2023-02-03T06:39:41;8.80;99.90
43087;DHT22;28708;52.224;6.924;2023-02-03T06:42:07;8.80;99.90
43087;DHT22;28708;52.224;6.924;2023-02-03T06:44:33;8.80;99.90
43087;DHT22;28708;52.224;6.924;2023-02-03T06:46:58;8.90;99.90
43087;DHT22;28708;52.224;6.924;2023-02-03T06:49:24;8.90;99.90
43087;DHT22;28708;52.224;6.924;2023-02-03T06:51:50;8.90;99.90
43087;DHT22;28708;52.224;6.924;2023-02-03T06:54:17;8.90;99.90
43087;DHT22;28708;52.224;6.924;2023-02-03T06:56:43;9.00;99.90
43087;DHT22;28708;52.224;6.924;2023-02-03T06:59:09;9.00;99.90
43087;DHT22;28708;52.224;6.924;2023-02-03T07:01:36;9.10;99.90
43087;DHT22;28708;52.224;6.924;2023-02-03T07:04:02;9.20;99.90
43087;DHT22;28708;52.224;6.924;2023-02-03T07:06:28;9.20;99.90
43087;DHT22;28708;52.224;6.924;2023-02-03T07:09:01;9.20;99.90
43087;DHT22;28708;52.224;6.924;2023-02-03T07:11:27;9.20;99.90
43087;DHT22;28708;52.224;6.924;2023-02-03T07:13:53;9.20;99.90
43087;DHT22;28708;52.224;6.924;2023-02-03T07:16:18;9.20;99.90
43087;DHT22;28708;52.224;6.924;2023-02-03T07:18:45;9.20;99.90
43087;DHT22;28708;52.224;6.924;2023-02-03T07:21:11;9.20;99.90
43087;DHT22;28708;52.224;6.924;2023-02-03T07:23:36;9.20;99.90
43087;DHT22;28708;52.224;6.924;2023-02-03T07:26:04;9.30;99.90
43087;DHT22;28708;52.224;6.924;2023-02-03T07:28:30;9.30;99.90
43087;DHT22;28708;52.224;6.924;2023-02-03T07:30:56;9.30;99.90
43087;DHT22;28708;52.224;6.924;2023-02-03T07:33:22;9.30;99.90
43087;DHT22;28708;52.224;6.924;2023-02-03T07:35:58;9.40;99.90
43087;DHT22;28708;52.224;6.924;2023-02-03T07:38:26;9.30;99.90
43087;DHT22;28708;52.224;6.924;2023-02-03T07:40:52;9.40;99.90
43087;DHT22;28708;52.224;6.924;2023-02-03T07:43:18;9.30;99.90
43087;DHT22;28708;52.224;6.924;2023-02-03T07:45:44;9.30;99.90
43087;DHT22;28708;52.224;6.924;2023-02-03T07:48:10;9.30;99.90
43087;DHT22;28708;52.224;6.924;2023-02-03T07:50:36;9.30;99.90
43087;DHT22;28708;52.224;6.924;2023-02-03T07:53:02;9.40;99.90
43087;DHT22;28708;52.224;6.924;2023-02-03T07:55:28;9.40;99.90
43087;DHT22;28708;52.224;6.924;2023-02-03T07:57:55;9.40;99.90
43087;DHT22;28708;52.224;6.924;2023-02-03T08:00:22;9.40;99.90
43087;DHT22;28708;52.224;6.924;2023-02-03T08:02:47;9.30;99.90
43087;DHT22;28708;52.224;6.924;2023-02-03T08:05:14;9.30;99.90
43087;DHT22;28708;52.224;6.924;2023-02-03T08:07:40;9.40;99.90
43087;DHT22;28708;52.224;6.924;2023-02-03T08:10:07;9.30;99.90
43087;DHT22;28708;52.224;6.924;2023-02-03T08:12:33;9.40;99.90
43087;DHT22;28708;52.224;6.924;2023-02-03T08:14:59;9.40;99.90
43087;DHT22;28708;52.224;6.924;2023-02-03T08:17:25;9.40;99.90
43087;DHT22;28708;52.224;6.924;2023-02-03T08:19:51;9.30;99.90
43087;DHT22;28708;52.224;6.924;2023-02-03T08:22:17;9.40;99.90
43087;DHT22;28708;52.224;6.924;2023-02-03T08:24:44;9.40;99.90
43087;DHT22;28708;52.224;6.924;2023-02-03T08:27:19;9.40;99.90
43087;DHT22;28708;52.224;6.924;2023-02-03T08:29:45;9.50;99.90
43087;DHT22;28708;52.224;6.924;2023-02-03T08:32:14;9.40;99.90
43087;DHT22;28708;52.224;6.924;2023-02-03T08:34:41;9.40;99.90
43087;DHT22;28708;52.224;6.924;2023-02-03T08:37:07;9.40;99.90
43087;DHT22;28708;52.224;6.924;2023-02-03T08:39:34;9.40;99.90
43087;DHT22;28708;52.224;6.924;2023-02-03T08:42:00;9.40;99.90
43087;DHT22;28708;52.224;6.924;2023-02-03T08:44:26;9.50;99.90
43087;DHT22;28708;52.224;6.924;2023-02-03T08:46:52;9.50;99.90
43087;DHT22;28708;52.224;6.924;2023-02-03T08:49:18;9.50;99.90
43087;DHT22;28708;52.224;6.924;2023-02-03T08:51:46;9.50;99.90
43087;DHT22;28708;52.224;6.924;2023-02-03T08:54:12;9.50;99.90
43087;DHT22;28708;52.224;6.924;2023-02-03T08:56:39;9.50;99.90
43087;DHT22;28708;52.224;6.924;2023-02-03T08:59:04;9.50;99.90
43087;DHT22;28708;52.224;6.924;2023-02-03T09:01:30;9.50;99.90
43087;DHT22;28708;52.224;6.924;2023-02-03T09:03:56;9.50;99.90
43087;DHT22;28708;52.224;6.924;2023-02-03T09:06:22;9.60;99.90
43087;DHT22;28708;52.224;6.924;2023-02-03T09:08:49;9.60;99.90
43087;DHT22;28708;52.224;6.924;2023-02-03T09:11:16;9.60;99.90
43087;DHT22;28708;52.224;6.924;2023-02-03T09:13:43;9.60;99.90
43087;DHT22;28708;52.224;6.924;2023-02-03T09:16:11;9.60;99.90
43087;DHT22;28708;52.224;6.924;2023-02-03T09:18:38;9.60;99.90
43087;DHT22;28708;52.224;6.924;2023-02-03T09:21:06;9.70;99.90
43087;DHT22;28708;52.224;6.924;2023-02-03T09:23:32;9.70;99.90
43087;DHT22;28708;52.224;6.924;2023-02-03T09:26:02;9.60;99.90
43087;DHT22;28708;52.224;6.924;2023-02-03T09:28:28;9.60;99.90
43087;DHT22;28708;52.224;6.924;2023-02-03T09:30:56;9.60;99.90
43087;DHT22;28708;52.224;6.924;2023-02-03T09:33:23;9.60;99.90
43087;DHT22;28708;52.224;6.924;2023-02-03T09:35:53;9.60;99.90
43087;DHT22;28708;52.224;6.924;2023-02-03T09:38:19;9.60;99.90
43087;DHT22;28708;52.224;6.924;2023-02-03T09:40:48;9.70;99.90
43087;DHT22;28708;52.224;6.924;2023-02-03T09:43:40;9.70;99.90
43087;DHT22;28708;52.224;6.924;2023-02-03T09:46:15;9.60;99.90
43087;DHT22;28708;52.224;6.924;2023-02-03T09:57:04;9.60;99.90
43087;DHT22;28708;52.224;6.924;2023-02-03T09:59:32;9.60;99.90
43087;DHT22;28708;52.224;6.924;2023-02-03T10:07:56;9.60;99.90
43087;DHT22;28708;52.224;6.924;2023-02-03T10:10:39;9.70;99.90
43087;DHT22;28708;52.224;6.924;2023-02-03T10:13:30;9.70;99.90
43087;DHT22;28708;52.224;6.924;2023-02-03T10:19:10;9.80;99.90
43087;DHT22;28708;52.224;6.924;2023-02-03T10:21:40;9.80;99.90
43087;DHT22;28708;52.224;6.924;2023-02-03T10:24:16;9.80;99.90
43087;DHT22;28708;52.224;6.924;2023-02-03T10:26:43;9.80;99.90
43087;DHT22;28708;52.224;6.924;2023-02-03T10:31:49;9.90;99.90
43087;DHT22;28708;52.224;6.924;2023-02-03T10:34:16;9.90;99.90
43087;DHT22;28708;52.224;6.924;2023-02-03T10:36:54;10.00;99.90
43087;DHT22;28708;52.224;6.924;2023-02-03T10:39:42;10.00;99.90
43087;DHT22;28708;52.224;6.924;2023-02-03T10:42:10;10.00;99.90
43087;DHT22;28708;52.224;6.924;2023-02-03T10:44:42;9.90;99.90
43087;DHT22;28708;52.224;6.924;2023-02-03T10:47:32;9.90;99.90
43087;DHT22;28708;52.224;6.924;2023-02-03T10:50:00;9.80;99.90
43087;DHT22;28708;52.224;6.924;2023-02-03T10:52:32;9.70;99.90
43087;DHT22;28708;52.224;6.924;2023-02-03T10:55:04;9.60;99.90
43087;DHT22;28708;52.224;6.924;2023-02-03T10:57:35;9.50;99.90
43087;DHT22;28708;52.224;6.924;2023-02-03T11:02:57;9.40;99.90
43087;DHT22;28708;52.224;6.924;2023-02-03T11:05:26;9.40;99.90
43087;DHT22;28708;52.224;6.924;2023-02-03T11:07:53;9.30;99.90
43087;DHT22;28708;52.224;6.924;2023-02-03T11:10:36;9.30;99.90
43087;DHT22;28708;52.224;6.924;2023-02-03T11:13:24;9.30;99.90
43087;DHT22;28708;52.224;6.924;2023-02-03T11:16:10;9.30;99.90
43087;DHT22;28708;52.224;6.924;2023-02-03T11:24:23;9.40;99.90
43087;DHT22;28708;52.224;6.924;2023-02-03T11:27:10;9.40;99.90
43087;DHT22;28708;52.224;6.924;2023-02-03T11:29:43;9.40;99.90
43087;DHT22;28708;52.224;6.924;2023-02-03T11:32:19;9.40;99.90
43087;DHT22;28708;52.224;6.924;2023-02-03T11:42:33;9.40;99.90
43087;DHT22;28708;52.224;6.924;2023-02-03T11:48:13;9.30;99.90
43087;DHT22;28708;52.224;6.924;2023-02-03T11:50:46;9.30;99.90
43087;DHT22;28708;52.224;6.924;2023-02-03T12:04:56;9.30;99.90
43087;DHT22;28708;52.224;6.924;2023-02-03T12:07:53;9.30;99.90
43087;DHT22;28708;52.224;6.924;2023-02-03T12:21:49;9.60;99.90
43087;DHT22;28708;52.224;6.924;2023-02-03T12:24:50;9.60;99.90
43087;DHT22;28708;52.224;6.924;2023-02-03T12:27:29;9.60;99.90
43087;DHT22;28708;52.224;6.924;2023-02-03T12:30:17;9.60;99.90
43087;DHT22;28708;52.224;6.924;2023-02-03T12:35:22;9.60;99.90
43087;DHT22;28708;52.224;6.924;2023-02-03T12:38:01;9.60;99.90
43087;DHT22;28708;52.224;6.924;2023-02-03T12:40:51;9.60;99.90
43087;DHT22;28708;52.224;6.924;2023-02-03T12:43:38;9.50;99.90
43087;DHT22;28708;52.224;6.924;2023-02-03T12:49:02;9.50;99.90
43087;DHT22;28708;52.224;6.924;2023-02-03T12:51:49;9.50;99.90
43087;DHT22;28708;52.224;6.924;2023-02-03T12:57:25;9.50;99.90
43087;DHT22;28708;52.224;6.924;2023-02-03T13:00:03;9.40;99.90
43087;DHT22;28708;52.224;6.924;2023-02-03T13:02:59;9.50;99.90
43087;DHT22;28708;52.224;6.924;2023-02-03T13:05:41;9.30;99.90
43087;DHT22;28708;52.224;6.924;2023-02-03T13:08:22;9.30;99.90
43087;DHT22;28708;52.224;6.924;2023-02-03T13:13:48;9.30;99.90
43087;DHT22;28708;52.224;6.924;2023-02-03T13:16:14;9.30;99.90
43087;DHT22;28708;52.224;6.924;2023-02-03T13:18:49;9.30;99.90
43087;DHT22;28708;52.224;6.924;2023-02-03T13:21:16;9.30;99.90
43087;DHT22;28708;52.224;6.924;2023-02-03T13:23:42;9.30;99.90
43087;DHT22;28708;52.224;6.924;2023-02-03T13:26:38;9.20;99.90
43087;DHT22;28708;52.224;6.924;2023-02-03T13:40:37;9.10;99.90
43087;DHT22;28708;52.224;6.924;2023-02-03T13:43:13;9.10;99.90
43087;DHT22;28708;52.224;6.924;2023-02-03T13:45:47;9.00;99.90
43087;DHT22;28708;52.224;6.924;2023-02-03T13:48:23;9.10;99.90
43087;DHT22;28708;52.224;6.924;2023-02-03T13:51:01;9.10;99.90
43087;DHT22;28708;52.224;6.924;2023-02-03T13:53:36;9.10;99.90
43087;DHT22;28708;52.224;6.924;2023-02-03T13:56:05;9.00;99.90
43087;DHT22;28708;52.224;6.924;2023-02-03T13:58:37;9.00;99.90
43087;DHT22;28708;52.224;6.924;2023-02-03T14:01:30;9.10;99.90
43087;DHT22;28708;52.224;6.924;2023-02-03T14:03:58;9.10;99.90
43087;DHT22;28708;52.224;6.924;2023-02-03T14:12:17;9.00;99.90
43087;DHT22;28708;52.224;6.924;2023-02-03T14:17:55;8.90;99.90
43087;DHT22;28708;52.224;6.924;2023-02-03T14:23:08;8.90;99.90
43087;DHT22;28708;52.224;6.924;2023-02-03T14:25:48;9.00;99.90
43087;DHT22;28708;52.224;6.924;2023-02-03T14:28:20;9.00;99.90
43087;DHT22;28708;52.224;6.924;2023-02-03T14:31:16;9.00;99.90
43087;DHT22;28708;52.224;6.924;2023-02-03T14:33:56;9.00;99.90
43087;DHT22;28708;52.224;6.924;2023-02-03T14:36:35;9.00;99.90
43087;DHT22;28708;52.224;6.924;2023-02-03T14:39:35;9.00;99.90
43087;DHT22;28708;52.224;6.924;2023-02-03T14:42:16;9.00;99.90
43087;DHT22;28708;52.224;6.924;2023-02-03T14:47:52;8.90;99.90
43087;DHT22;28708;52.224;6.924;2023-02-03T14:58:45;8.90;99.90
43087;DHT22;28708;52.224;6.924;2023-02-03T15:06:42;8.80;99.90
43087;DHT22;28708;52.224;6.924;2023-02-03T15:09:43;8.80;99.90
43087;DHT22;28708;52.224;6.924;2023-02-03T15:12:18;8.80;99.90
43087;DHT22;28708;52.224;6.924;2023-02-03T15:14:43;8.80;99.90
43087;DHT22;28708;52.224;6.924;2023-02-03T15:17:27;8.80;99.90
43087;DHT22;28708;52.224;6.924;2023-02-03T15:19:55;8.80;99.90
43087;DHT22;28708;52.224;6.924;2023-02-03T15:22:26;8.80;99.90
43087;DHT22;28708;52.224;6.924;2023-02-03T15:24:58;8.80;99.90
43087;DHT22;28708;52.224;6.924;2023-02-03T15:27:27;8.80;99.90
43087;DHT22;28708;52.224;6.924;2023-02-03T15:29:53;8.80;99.90
43087;DHT22;28708;52.224;6.924;2023-02-03T15:32:25;8.80;99.90
43087;DHT22;28708;52.224;6.924;2023-02-03T15:34:54;8.80;99.90
43087;DHT22;28708;52.224;6.924;2023-02-03T15:37:49;8.70;99.90
43087;DHT22;28708;52.224;6.924;2023-02-03T15:40:20;8.70;99.90
43087;DHT22;28708;52.224;6.924;2023-02-03T15:42:58;8.70;99.90
43087;DHT22;28708;52.224;6.924;2023-02-03T15:50:45;8.70;99.90
43087;DHT22;28708;52.224;6.924;2023-02-03T15:53:26;8.70;99.90
43087;DHT22;28708;52.224;6.924;2023-02-03T15:55:56;8.70;99.90
43087;DHT22;28708;52.224;6.924;2023-02-03T15:58:24;8.60;99.90
43087;DHT22;28708;52.224;6.924;2023-02-03T16:00:59;8.60;99.90
43087;DHT22;28708;52.224;6.924;2023-02-03T16:03:38;8.60;99.90
43087;DHT22;28708;52.224;6.924;2023-02-03T16:08:53;8.50;99.90
43087;DHT22;28708;52.224;6.924;2023-02-03T16:13:55;8.50;99.90
43087;DHT22;28708;52.224;6.924;2023-02-03T16:16:33;8.50;99.90
43087;DHT22;28708;52.224;6.924;2023-02-03T16:19:03;8.40;99.90
43087;DHT22;28708;52.224;6.924;2023-02-03T16:21:35;8.40;99.90
43087;DHT22;28708;52.224;6.924;2023-02-03T16:24:03;8.40;99.90
43087;DHT22;28708;52.224;6.924;2023-02-03T16:26:30;8.40;99.90
43087;DHT22;28708;52.224;6.924;2023-02-03T16:31:52;8.30;99.90
43087;DHT22;28708;52.224;6.924;2023-02-03T16:34:36;8.30;99.90
43087;DHT22;28708;52.224;6.924;2023-02-03T16:37:30;8.20;99.90
43087;DHT22;28708;52.224;6.924;2023-02-03T16:40:18;8.10;99.90
43087;DHT22;28708;52.224;6.924;2023-02-03T16:43:03;8.10;99.90
43087;DHT22;28708;52.224;6.924;2023-02-03T16:45:55;8.00;99.90
43087;DHT22;28708;52.224;6.924;2023-02-03T16:48:40;8.00;99.90
43087;DHT22;28708;52.224;6.924;2023-02-03T16:51:26;8.00;99.90
43087;DHT22;28708;52.224;6.924;2023-02-03T16:53:53;8.00;99.90
43087;DHT22;28708;52.224;6.924;2023-02-03T16:56:19;8.00;99.90
43087;DHT22;28708;52.224;6.924;2023-02-03T16:58:44;8.00;99.90
43087;DHT22;28708;52.224;6.924;2023-02-03T17:01:10;8.00;99.90
43087;DHT22;28708;52.224;6.924;2023-02-03T17:03:36;8.00;99.90
43087;DHT22;28708;52.224;6.924;2023-02-03T17:06:07;8.00;99.90
43087;DHT22;28708;52.224;6.924;2023-02-03T17:08:33;7.90;99.90
43087;DHT22;28708;52.224;6.924;2023-02-03T17:11:10;7.90;99.90
43087;DHT22;28708;52.224;6.924;2023-02-03T17:13:37;7.90;99.90
43087;DHT22;28708;52.224;6.924;2023-02-03T17:16:08;7.90;99.90
43087;DHT22;28708;52.224;6.924;2023-02-03T17:18:34;7.90;99.90
43087;DHT22;28708;52.224;6.924;2023-02-03T17:21:05;7.90;99.90
43087;DHT22;28708;52.224;6.924;2023-02-03T17:23:31;7.90;99.90
43087;DHT22;28708;52.224;6.924;2023-02-03T17:25:56;7.90;99.90
43087;DHT22;28708;52.224;6.924;2023-02-03T17:28:22;7.90;99.90
43087;DHT22;28708;52.224;6.924;2023-02-03T17:30:56;7.90;99.90
43087;DHT22;28708;52.224;6.924;2023-02-03T17:33:22;7.90;99.90
43087;DHT22;28708;52.224;6.924;2023-02-03T17:36:07;7.80;99.90
43087;DHT22;28708;52.224;6.924;2023-02-03T17:38:45;7.80;99.90
43087;DHT22;28708;52.224;6.924;2023-02-03T17:41:13;7.80;99.90
43087;DHT22;28708;52.224;6.924;2023-02-03T17:43:39;7.80;99.90
43087;DHT22;28708;52.224;6.924;2023-02-03T17:46:05;7.70;99.90
43087;DHT22;28708;52.224;6.924;2023-02-03T17:48:32;7.70;99.90
43087;DHT22;28708;52.224;6.924;2023-02-03T17:51:15;7.70;99.90
43087;DHT22;28708;52.224;6.924;2023-02-03T17:53:45;7.60;99.90
43087;DHT22;28708;52.224;6.924;2023-02-03T17:56:23;7.70;99.90
43087;DHT22;28708;52.224;6.924;2023-02-03T17:58:54;7.60;99.90
43087;DHT22;28708;52.224;6.924;2023-02-03T18:01:20;7.60;99.90
43087;DHT22;28708;52.224;6.924;2023-02-03T18:03:47;7.60;99.90
43087;DHT22;28708;52.224;6.924;2023-02-03T18:06:15;7.60;99.90
43087;DHT22;28708;52.224;6.924;2023-02-03T18:08:40;7.60;99.90
43087;DHT22;28708;52.224;6.924;2023-02-03T18:11:06;7.60;99.90
43087;DHT22;28708;52.224;6.924;2023-02-03T18:13:41;7.60;99.90
43087;DHT22;28708;52.224;6.924;2023-02-03T18:16:17;7.60;99.90
43087;DHT22;28708;52.224;6.924;2023-02-03T18:18:44;7.60;99.90
43087;DHT22;28708;52.224;6.924;2023-02-03T18:21:12;7.50;99.90
43087;DHT22;28708;52.224;6.924;2023-02-03T18:23:38;7.50;99.90
43087;DHT22;28708;52.224;6.924;2023-02-03T18:26:05;7.50;99.90
43087;DHT22;28708;52.224;6.924;2023-02-03T18:28:31;7.50;99.90
43087;DHT22;28708;52.224;6.924;2023-02-03T18:30:58;7.50;99.90
43087;DHT22;28708;52.224;6.924;2023-02-03T18:33:24;7.50;99.90
43087;DHT22;28708;52.224;6.924;2023-02-03T18:35:50;7.50;99.90
43087;DHT22;28708;52.224;6.924;2023-02-03T18:38:16;7.50;99.90
43087;DHT22;28708;52.224;6.924;2023-02-03T18:40:41;7.50;99.90